KMKC/MKC METAR and TAF weather

Enter ICAO airport designator
Station Type Date Time Source
KMKC METAR 2023/02/05 23:54 UTC NOAA

KMKC 052354Z 00000KT 10SM CLR 12/M04 A3007 RMK AO2 SLP187 T01171044 10167 20111 53002


Station Type Date Time Source
KMKC Decoded METAR 2023/02/05 23:54 UTC NOAA

KANSAS CITY DOWNTOWN AIRPORT , MO, United States (KMKC) 39-07N 094-36W 227M
Feb 05, 2023 - 06:54 PM EST / 2023.02.05 2354 UTC
Wind: Calm:0
Visibility: 10 mile(s):0
Sky conditions: clear
Temperature: 53.1 F (11.7 C)
Dew Point: 24.1 F (-4.4 C)
Relative Humidity: 32%
Pressure (altimeter): 30.07 in. Hg (1018 hPa)
Pressure tendency: 0.01 inches (0.2 hPa) higher than three hours ago
ob: KMKC 052354Z 00000KT 10SM CLR 12/M04 A3007 RMK AO2 SLP187 T01171044 10167 20111 53002
cycle: 0

Station Type Date Time Source
KMKC TAF 2023/02/05 18:22 UTC NOAA

TAF KMKC 051720Z 0518/0618 26006KT P6SM SKC
FM060300 13003KT P6SM FEW200
FM061200 14013KT P6SM SCT250

Example: see airport list